sensor_id;sensor_type;location;lat;lon;timestamp;P1;durP1;ratioP1;P2;durP2;ratioP2
66052;SDS011;52833;45.112;39.556;2022-11-13T00:02:41;22.30;;;11.85;;
66052;SDS011;52833;45.112;39.556;2022-11-13T00:05:26;23.33;;;8.65;;
66052;SDS011;52833;45.112;39.556;2022-11-13T00:08:12;19.10;;;10.30;;
66052;SDS011;52833;45.112;39.556;2022-11-13T00:11:04;20.70;;;11.00;;
66052;SDS011;52833;45.112;39.556;2022-11-13T00:13:52;18.02;;;9.52;;
66052;SDS011;52833;45.112;39.556;2022-11-13T00:16:37;17.73;;;10.38;;
66052;SDS011;52833;45.112;39.556;2022-11-13T00:19:22;29.35;;;12.15;;
66052;SDS011;52833;45.112;39.556;2022-11-13T00:22:07;22.27;;;11.93;;
66052;SDS011;52833;45.112;39.556;2022-11-13T00:24:55;18.48;;;10.20;;
66052;SDS011;52833;45.112;39.556;2022-11-13T00:27:39;19.98;;;11.50;;
66052;SDS011;52833;45.112;39.556;2022-11-13T00:30:25;22.65;;;11.80;;
66052;SDS011;52833;45.112;39.556;2022-11-13T00:33:10;24.50;;;10.63;;
66052;SDS011;52833;45.112;39.556;2022-11-13T00:36:05;22.70;;;11.90;;
66052;SDS011;52833;45.112;39.556;2022-11-13T00:38:53;23.73;;;12.43;;
66052;SDS011;52833;45.112;39.556;2022-11-13T00:41:40;21.08;;;10.68;;
66052;SDS011;52833;45.112;39.556;2022-11-13T00:44:25;29.27;;;12.05;;
66052;SDS011;52833;45.112;39.556;2022-11-13T00:47:12;30.38;;;12.90;;
66052;SDS011;52833;45.112;39.556;2022-11-13T00:49:58;23.00;;;11.80;;
66052;SDS011;52833;45.112;39.556;2022-11-13T00:52:49;22.98;;;12.57;;
66052;SDS011;52833;45.112;39.556;2022-11-13T00:55:35;16.05;;;9.23;;
66052;SDS011;52833;45.112;39.556;2022-11-13T00:58:20;24.83;;;11.32;;
66052;SDS011;52833;45.112;39.556;2022-11-13T01:01:06;23.33;;;13.50;;
66052;SDS011;52833;45.112;39.556;2022-11-13T01:03:53;20.10;;;10.95;;
66052;SDS011;52833;45.112;39.556;2022-11-13T01:06:38;17.77;;;10.98;;
66052;SDS011;52833;45.112;39.556;2022-11-13T01:09:23;21.75;;;12.40;;
66052;SDS011;52833;45.112;39.556;2022-11-13T01:12:08;27.67;;;13.07;;
66052;SDS011;52833;45.112;39.556;2022-11-13T01:14:53;20.58;;;11.07;;
66052;SDS011;52833;45.112;39.556;2022-11-13T01:17:38;20.65;;;11.07;;
66052;SDS011;52833;45.112;39.556;2022-11-13T01:20:24;24.15;;;13.10;;
66052;SDS011;52833;45.112;39.556;2022-11-13T01:23:09;25.80;;;12.63;;
66052;SDS011;52833;45.112;39.556;2022-11-13T01:25:54;23.75;;;12.00;;
66052;SDS011;52833;45.112;39.556;2022-11-13T01:28:59;21.85;;;12.23;;
66052;SDS011;52833;45.112;39.556;2022-11-13T01:31:44;24.52;;;11.98;;
66052;SDS011;52833;45.112;39.556;2022-11-13T01:34:29;20.10;;;10.90;;
66052;SDS011;52833;45.112;39.556;2022-11-13T01:37:14;23.00;;;11.90;;
66052;SDS011;52833;45.112;39.556;2022-11-13T01:40:00;24.52;;;10.93;;
66052;SDS011;52833;45.112;39.556;2022-11-13T01:42:44;22.30;;;11.95;;
66052;SDS011;52833;45.112;39.556;2022-11-13T01:48:59;24.30;;;12.25;;
66052;SDS011;52833;45.112;39.556;2022-11-13T01:51:49;23.40;;;12.45;;
66052;SDS011;52833;45.112;39.556;2022-11-13T01:55:02;22.20;;;12.10;;
66052;SDS011;52833;45.112;39.556;2022-11-13T01:57:51;24.98;;;13.07;;
66052;SDS011;52833;45.112;39.556;2022-11-13T02:00:36;27.77;;;14.98;;
66052;SDS011;52833;45.112;39.556;2022-11-13T02:03:21;19.42;;;12.02;;
66052;SDS011;52833;45.112;39.556;2022-11-13T02:06:06;27.48;;;12.73;;
66052;SDS011;52833;45.112;39.556;2022-11-13T02:08:51;29.10;;;14.20;;
66052;SDS011;52833;45.112;39.556;2022-11-13T02:11:37;25.00;;;10.98;;
66052;SDS011;52833;45.112;39.556;2022-11-13T02:14:23;21.35;;;12.38;;
66052;SDS011;52833;45.112;39.556;2022-11-13T02:17:14;24.17;;;12.13;;
66052;SDS011;52833;45.112;39.556;2022-11-13T02:20:13;21.67;;;10.63;;
66052;SDS011;52833;45.112;39.556;2022-11-13T02:25:56;22.88;;;11.70;;
66052;SDS011;52833;45.112;39.556;2022-11-13T02:28:42;22.95;;;13.18;;
66052;SDS011;52833;45.112;39.556;2022-11-13T02:31:27;24.30;;;13.05;;
66052;SDS011;52833;45.112;39.556;2022-11-13T02:34:12;22.52;;;13.65;;
66052;SDS011;52833;45.112;39.556;2022-11-13T02:36:57;22.10;;;11.15;;
66052;SDS011;52833;45.112;39.556;2022-11-13T02:39:42;22.17;;;11.52;;
66052;SDS011;52833;45.112;39.556;2022-11-13T02:42:27;30.98;;;13.13;;
66052;SDS011;52833;45.112;39.556;2022-11-13T02:45:12;21.65;;;11.02;;
66052;SDS011;52833;45.112;39.556;2022-11-13T02:48:00;22.23;;;10.20;;
66052;SDS011;52833;45.112;39.556;2022-11-13T02:50:45;20.88;;;11.80;;
66052;SDS011;52833;45.112;39.556;2022-11-13T02:53:30;29.17;;;12.55;;
66052;SDS011;52833;45.112;39.556;2022-11-13T02:56:15;30.48;;;12.27;;
66052;SDS011;52833;45.112;39.556;2022-11-13T02:59:00;22.98;;;12.02;;
66052;SDS011;52833;45.112;39.556;2022-11-13T03:01:45;18.10;;;9.52;;
66052;SDS011;52833;45.112;39.556;2022-11-13T03:04:31;25.33;;;12.90;;
66052;SDS011;52833;45.112;39.556;2022-11-13T03:07:16;21.65;;;10.68;;
66052;SDS011;52833;45.112;39.556;2022-11-13T03:10:00;21.35;;;10.00;;
66052;SDS011;52833;45.112;39.556;2022-11-13T03:12:46;28.48;;;11.88;;
66052;SDS011;52833;45.112;39.556;2022-11-13T03:15:30;25.98;;;12.68;;
66052;SDS011;52833;45.112;39.556;2022-11-13T03:18:17;26.67;;;12.68;;
66052;SDS011;52833;45.112;39.556;2022-11-13T03:21:06;16.17;;;9.20;;
66052;SDS011;52833;45.112;39.556;2022-11-13T03:23:53;22.52;;;10.55;;
66052;SDS011;52833;45.112;39.556;2022-11-13T03:26:38;24.00;;;11.85;;
66052;SDS011;52833;45.112;39.556;2022-11-13T03:29:23;21.02;;;11.13;;
66052;SDS011;52833;45.112;39.556;2022-11-13T03:32:08;23.70;;;10.43;;
66052;SDS011;52833;45.112;39.556;2022-11-13T03:34:53;17.73;;;10.13;;
66052;SDS011;52833;45.112;39.556;2022-11-13T03:37:38;18.55;;;9.98;;
66052;SDS011;52833;45.112;39.556;2022-11-13T03:40:23;17.50;;;9.52;;
66052;SDS011;52833;45.112;39.556;2022-11-13T03:43:08;21.63;;;11.07;;
66052;SDS011;52833;45.112;39.556;2022-11-13T03:45:53;14.02;;;9.10;;
66052;SDS011;52833;45.112;39.556;2022-11-13T03:48:38;15.55;;;9.68;;
66052;SDS011;52833;45.112;39.556;2022-11-13T03:51:23;22.58;;;11.77;;
66052;SDS011;52833;45.112;39.556;2022-11-13T03:54:08;19.13;;;8.50;;
66052;SDS011;52833;45.112;39.556;2022-11-13T03:56:53;22.55;;;10.82;;
66052;SDS011;52833;45.112;39.556;2022-11-13T03:59:39;21.67;;;11.48;;
66052;SDS011;52833;45.112;39.556;2022-11-13T04:02:24;18.70;;;10.07;;
66052;SDS011;52833;45.112;39.556;2022-11-13T04:05:09;20.30;;;10.63;;
66052;SDS011;52833;45.112;39.556;2022-11-13T04:07:54;16.38;;;9.90;;
66052;SDS011;52833;45.112;39.556;2022-11-13T04:10:40;16.83;;;9.02;;
66052;SDS011;52833;45.112;39.556;2022-11-13T04:13:26;16.30;;;8.57;;
66052;SDS011;52833;45.112;39.556;2022-11-13T04:16:11;25.83;;;10.77;;
66052;SDS011;52833;45.112;39.556;2022-11-13T04:18:56;26.92;;;11.65;;
66052;SDS011;52833;45.112;39.556;2022-11-13T04:21:41;25.27;;;10.68;;
66052;SDS011;52833;45.112;39.556;2022-11-13T04:24:26;18.77;;;9.27;;
66052;SDS011;52833;45.112;39.556;2022-11-13T04:27:11;16.52;;;8.77;;
66052;SDS011;52833;45.112;39.556;2022-11-13T04:29:56;22.75;;;11.88;;
66052;SDS011;52833;45.112;39.556;2022-11-13T04:32:41;23.52;;;11.30;;
66052;SDS011;52833;45.112;39.556;2022-11-13T04:35:27;19.45;;;9.85;;
66052;SDS011;52833;45.112;39.556;2022-11-13T04:38:12;17.00;;;9.88;;
66052;SDS011;52833;45.112;39.556;2022-11-13T04:40:57;12.10;;;8.05;;
66052;SDS011;52833;45.112;39.556;2022-11-13T04:44:01;19.10;;;9.05;;
66052;SDS011;52833;45.112;39.556;2022-11-13T04:46:46;14.82;;;8.13;;
66052;SDS011;52833;45.112;39.556;2022-11-13T04:49:31;18.63;;;10.57;;
66052;SDS011;52833;45.112;39.556;2022-11-13T04:52:16;16.90;;;9.90;;
66052;SDS011;52833;45.112;39.556;2022-11-13T04:55:01;28.08;;;10.82;;
66052;SDS011;52833;45.112;39.556;2022-11-13T04:57:46;18.98;;;9.82;;
66052;SDS011;52833;45.112;39.556;2022-11-13T05:00:34;21.80;;;7.38;;
66052;SDS011;52833;45.112;39.556;2022-11-13T05:03:20;16.83;;;7.43;;
66052;SDS011;52833;45.112;39.556;2022-11-13T05:06:05;14.10;;;7.20;;
66052;SDS011;52833;45.112;39.556;2022-11-13T05:08:52;10.52;;;7.28;;
66052;SDS011;52833;45.112;39.556;2022-11-13T05:11:37;12.45;;;6.90;;
66052;SDS011;52833;45.112;39.556;2022-11-13T05:14:22;15.20;;;7.85;;
66052;SDS011;52833;45.112;39.556;2022-11-13T05:17:11;12.60;;;6.65;;
66052;SDS011;52833;45.112;39.556;2022-11-13T05:19:56;15.93;;;6.50;;
66052;SDS011;52833;45.112;39.556;2022-11-13T05:22:41;14.98;;;7.32;;
66052;SDS011;52833;45.112;39.556;2022-11-13T05:25:26;14.23;;;8.02;;
66052;SDS011;52833;45.112;39.556;2022-11-13T05:28:11;11.15;;;5.97;;
66052;SDS011;52833;45.112;39.556;2022-11-13T05:31:06;10.57;;;6.82;;
66052;SDS011;52833;45.112;39.556;2022-11-13T05:33:53;9.15;;;5.43;;
66052;SDS011;52833;45.112;39.556;2022-11-13T05:36:38;12.05;;;5.90;;
66052;SDS011;52833;45.112;39.556;2022-11-13T05:39:24;10.45;;;5.38;;
66052;SDS011;52833;45.112;39.556;2022-11-13T05:42:09;9.77;;;5.43;;
66052;SDS011;52833;45.112;39.556;2022-11-13T05:44:54;10.95;;;5.97;;
66052;SDS011;52833;45.112;39.556;2022-11-13T05:47:40;9.77;;;4.88;;
66052;SDS011;52833;45.112;39.556;2022-11-13T05:50:25;10.40;;;5.88;;
66052;SDS011;52833;45.112;39.556;2022-11-13T05:53:10;10.10;;;6.15;;
66052;SDS011;52833;45.112;39.556;2022-11-13T05:55:58;12.75;;;6.05;;
66052;SDS011;52833;45.112;39.556;2022-11-13T05:58:45;9.77;;;5.82;;
66052;SDS011;52833;45.112;39.556;2022-11-13T06:01:32;11.23;;;5.57;;
66052;SDS011;52833;45.112;39.556;2022-11-13T06:04:19;13.52;;;6.07;;
66052;SDS011;52833;45.112;39.556;2022-11-13T06:07:04;14.15;;;6.53;;
66052;SDS011;52833;45.112;39.556;2022-11-13T06:09:48;9.40;;;6.28;;
66052;SDS011;52833;45.112;39.556;2022-11-13T06:12:34;12.10;;;6.90;;
66052;SDS011;52833;45.112;39.556;2022-11-13T06:15:19;11.77;;;6.03;;
66052;SDS011;52833;45.112;39.556;2022-11-13T06:18:04;9.27;;;5.68;;
66052;SDS011;52833;45.112;39.556;2022-11-13T06:20:50;12.07;;;6.38;;
66052;SDS011;52833;45.112;39.556;2022-11-13T06:23:36;10.65;;;6.50;;
66052;SDS011;52833;45.112;39.556;2022-11-13T06:26:24;12.88;;;6.68;;
66052;SDS011;52833;45.112;39.556;2022-11-13T06:29:11;11.75;;;7.05;;
66052;SDS011;52833;45.112;39.556;2022-11-13T06:31:56;17.60;;;8.57;;
66052;SDS011;52833;45.112;39.556;2022-11-13T06:34:42;13.05;;;7.63;;
66052;SDS011;52833;45.112;39.556;2022-11-13T06:37:26;11.73;;;7.68;;
66052;SDS011;52833;45.112;39.556;2022-11-13T06:40:12;11.55;;;5.65;;
66052;SDS011;52833;45.112;39.556;2022-11-13T06:42:57;16.60;;;7.75;;
66052;SDS011;52833;45.112;39.556;2022-11-13T06:45:42;15.95;;;7.90;;
66052;SDS011;52833;45.112;39.556;2022-11-13T06:48:27;15.00;;;7.35;;
66052;SDS011;52833;45.112;39.556;2022-11-13T06:51:13;15.63;;;8.05;;
66052;SDS011;52833;45.112;39.556;2022-11-13T06:54:06;15.35;;;6.47;;
66052;SDS011;52833;45.112;39.556;2022-11-13T06:56:51;14.23;;;7.15;;
66052;SDS011;52833;45.112;39.556;2022-11-13T06:59:35;11.20;;;5.70;;
66052;SDS011;52833;45.112;39.556;2022-11-13T07:02:23;9.68;;;6.22;;
66052;SDS011;52833;45.112;39.556;2022-11-13T07:05:08;15.70;;;6.60;;
66052;SDS011;52833;45.112;39.556;2022-11-13T07:07:53;17.67;;;6.18;;
66052;SDS011;52833;45.112;39.556;2022-11-13T07:10:38;13.15;;;6.88;;
66052;SDS011;52833;45.112;39.556;2022-11-13T07:13:24;16.67;;;6.60;;
66052;SDS011;52833;45.112;39.556;2022-11-13T07:16:11;10.63;;;5.10;;
66052;SDS011;52833;45.112;39.556;2022-11-13T07:18:57;10.57;;;5.57;;
66052;SDS011;52833;45.112;39.556;2022-11-13T07:21:45;8.52;;;5.13;;
66052;SDS011;52833;45.112;39.556;2022-11-13T07:24:30;12.30;;;5.32;;
66052;SDS011;52833;45.112;39.556;2022-11-13T07:27:16;13.65;;;6.30;;
66052;SDS011;52833;45.112;39.556;2022-11-13T07:30:01;13.35;;;5.43;;
66052;SDS011;52833;45.112;39.556;2022-11-13T07:32:47;15.50;;;5.30;;
66052;SDS011;52833;45.112;39.556;2022-11-13T07:35:32;11.63;;;7.32;;
66052;SDS011;52833;45.112;39.556;2022-11-13T07:38:17;6.60;;;4.32;;
66052;SDS011;52833;45.112;39.556;2022-11-13T07:41:04;10.48;;;5.95;;
66052;SDS011;52833;45.112;39.556;2022-11-13T07:43:50;11.10;;;5.13;;
66052;SDS011;52833;45.112;39.556;2022-11-13T07:46:35;8.68;;;4.80;;
66052;SDS011;52833;45.112;39.556;2022-11-13T07:49:20;11.30;;;5.28;;
66052;SDS011;52833;45.112;39.556;2022-11-13T07:52:05;12.35;;;5.80;;
66052;SDS011;52833;45.112;39.556;2022-11-13T07:54:50;9.98;;;5.35;;
66052;SDS011;52833;45.112;39.556;2022-11-13T07:57:35;7.88;;;4.55;;
66052;SDS011;52833;45.112;39.556;2022-11-13T08:00:20;7.63;;;4.28;;
66052;SDS011;52833;45.112;39.556;2022-11-13T08:05:59;12.48;;;4.78;;
66052;SDS011;52833;45.112;39.556;2022-11-13T08:11:34;11.48;;;4.70;;
66052;SDS011;52833;45.112;39.556;2022-11-13T08:14:19;9.52;;;4.43;;
66052;SDS011;52833;45.112;39.556;2022-11-13T08:17:05;12.90;;;5.22;;
66052;SDS011;52833;45.112;39.556;2022-11-13T08:19:51;10.32;;;5.05;;
66052;SDS011;52833;45.112;39.556;2022-11-13T08:22:37;7.65;;;4.22;;
66052;SDS011;52833;45.112;39.556;2022-11-13T08:25:23;20.60;;;6.93;;
66052;SDS011;52833;45.112;39.556;2022-11-13T08:28:08;7.72;;;4.88;;
66052;SDS011;52833;45.112;39.556;2022-11-13T08:30:53;7.18;;;4.30;;
66052;SDS011;52833;45.112;39.556;2022-11-13T08:33:38;8.55;;;4.93;;
66052;SDS011;52833;45.112;39.556;2022-11-13T08:36:24;7.60;;;4.63;;
66052;SDS011;52833;45.112;39.556;2022-11-13T08:39:08;14.13;;;4.32;;
66052;SDS011;52833;45.112;39.556;2022-11-13T08:41:53;8.30;;;4.50;;
66052;SDS011;52833;45.112;39.556;2022-11-13T08:44:38;7.25;;;4.20;;
66052;SDS011;52833;45.112;39.556;2022-11-13T08:47:24;8.27;;;4.22;;
66052;SDS011;52833;45.112;39.556;2022-11-13T08:50:11;7.15;;;3.85;;
66052;SDS011;52833;45.112;39.556;2022-11-13T08:52:58;4.75;;;2.50;;
66052;SDS011;52833;45.112;39.556;2022-11-13T08:55:45;8.05;;;4.32;;
66052;SDS011;52833;45.112;39.556;2022-11-13T08:58:30;4.88;;;3.40;;
66052;SDS011;52833;45.112;39.556;2022-11-13T09:01:15;8.32;;;3.78;;
66052;SDS011;52833;45.112;39.556;2022-11-13T09:04:00;19.40;;;4.13;;
66052;SDS011;52833;45.112;39.556;2022-11-13T09:06:46;5.78;;;3.72;;
66052;SDS011;52833;45.112;39.556;2022-11-13T09:09:32;6.45;;;3.45;;
66052;SDS011;52833;45.112;39.556;2022-11-13T09:12:17;6.63;;;3.65;;
66052;SDS011;52833;45.112;39.556;2022-11-13T09:15:02;8.93;;;3.85;;
66052;SDS011;52833;45.112;39.556;2022-11-13T09:17:48;11.00;;;4.13;;
66052;SDS011;52833;45.112;39.556;2022-11-13T09:20:33;6.70;;;3.83;;
66052;SDS011;52833;45.112;39.556;2022-11-13T09:23:21;8.07;;;3.88;;
66052;SDS011;52833;45.112;39.556;2022-11-13T09:26:06;19.05;;;4.65;;
66052;SDS011;52833;45.112;39.556;2022-11-13T09:28:51;7.65;;;4.28;;
66052;SDS011;52833;45.112;39.556;2022-11-13T09:31:37;12.95;;;4.30;;
66052;SDS011;52833;45.112;39.556;2022-11-13T09:34:24;8.52;;;4.50;;
66052;SDS011;52833;45.112;39.556;2022-11-13T09:37:13;6.70;;;4.05;;
66052;SDS011;52833;45.112;39.556;2022-11-13T09:39:59;8.80;;;4.00;;
66052;SDS011;52833;45.112;39.556;2022-11-13T09:42:45;6.40;;;4.00;;
66052;SDS011;52833;45.112;39.556;2022-11-13T09:45:30;7.15;;;4.13;;
66052;SDS011;52833;45.112;39.556;2022-11-13T09:48:21;18.55;;;11.02;;
66052;SDS011;52833;45.112;39.556;2022-11-13T09:51:26;6.82;;;3.85;;
66052;SDS011;52833;45.112;39.556;2022-11-13T09:54:14;7.82;;;4.40;;
66052;SDS011;52833;45.112;39.556;2022-11-13T09:57:04;5.97;;;3.47;;
66052;SDS011;52833;45.112;39.556;2022-11-13T10:00:19;13.07;;;6.13;;
66052;SDS011;52833;45.112;39.556;2022-11-13T10:09:01;13.60;;;6.35;;
66052;SDS011;52833;45.112;39.556;2022-11-13T10:12:01;11.65;;;7.18;;
66052;SDS011;52833;45.112;39.556;2022-11-13T10:14:54;10.93;;;6.28;;
66052;SDS011;52833;45.112;39.556;2022-11-13T10:17:51;11.43;;;5.88;;
66052;SDS011;52833;45.112;39.556;2022-11-13T10:20:45;9.30;;;6.32;;
66052;SDS011;52833;45.112;39.556;2022-11-13T10:24:10;12.45;;;6.75;;
66052;SDS011;52833;45.112;39.556;2022-11-13T10:27:11;10.45;;;6.32;;
66052;SDS011;52833;45.112;39.556;2022-11-13T10:29:57;13.05;;;7.22;;
66052;SDS011;52833;45.112;39.556;2022-11-13T10:32:43;9.45;;;5.90;;
66052;SDS011;52833;45.112;39.556;2022-11-13T10:35:31;10.02;;;6.22;;
66052;SDS011;52833;45.112;39.556;2022-11-13T10:41:22;10.68;;;6.07;;
66052;SDS011;52833;45.112;39.556;2022-11-13T10:44:20;15.93;;;5.50;;
66052;SDS011;52833;45.112;39.556;2022-11-13T10:50:09;17.38;;;7.93;;
66052;SDS011;52833;45.112;39.556;2022-11-13T10:52:56;14.65;;;7.35;;
66052;SDS011;52833;45.112;39.556;2022-11-13T10:55:42;12.75;;;6.18;;
66052;SDS011;52833;45.112;39.556;2022-11-13T10:58:28;14.90;;;6.47;;
66052;SDS011;52833;45.112;39.556;2022-11-13T11:01:20;10.77;;;6.43;;
66052;SDS011;52833;45.112;39.556;2022-11-13T11:04:18;9.45;;;5.57;;
66052;SDS011;52833;45.112;39.556;2022-11-13T11:07:16;14.27;;;5.40;;
66052;SDS011;52833;45.112;39.556;2022-11-13T11:10:06;9.82;;;6.45;;
66052;SDS011;52833;45.112;39.556;2022-11-13T11:13:21;10.07;;;5.60;;
66052;SDS011;52833;45.112;39.556;2022-11-13T11:16:12;11.67;;;5.70;;
66052;SDS011;52833;45.112;39.556;2022-11-13T11:19:04;11.63;;;5.85;;
66052;SDS011;52833;45.112;39.556;2022-11-13T11:21:57;15.75;;;7.63;;
66052;SDS011;52833;45.112;39.556;2022-11-13T11:28:00;9.63;;;5.47;;
66052;SDS011;52833;45.112;39.556;2022-11-13T11:30:50;10.48;;;6.40;;
66052;SDS011;52833;45.112;39.556;2022-11-13T11:37:12;14.73;;;6.88;;
66052;SDS011;52833;45.112;39.556;2022-11-13T11:40:11;10.57;;;6.20;;
66052;SDS011;52833;45.112;39.556;2022-11-13T11:43:24;23.73;;;9.88;;
66052;SDS011;52833;45.112;39.556;2022-11-13T11:48:59;14.45;;;9.40;;
66052;SDS011;52833;45.112;39.556;2022-11-13T11:55:34;15.77;;;8.82;;
66052;SDS011;52833;45.112;39.556;2022-11-13T12:04:56;12.45;;;7.68;;
66052;SDS011;52833;45.112;39.556;2022-11-13T12:07:55;12.13;;;7.35;;
66052;SDS011;52833;45.112;39.556;2022-11-13T12:16:54;13.70;;;8.13;;
66052;SDS011;52833;45.112;39.556;2022-11-13T12:20:02;10.10;;;5.35;;
66052;SDS011;52833;45.112;39.556;2022-11-13T12:23:10;8.15;;;5.43;;
66052;SDS011;52833;45.112;39.556;2022-11-13T12:26:05;24.10;;;8.60;;
66052;SDS011;52833;45.112;39.556;2022-11-13T12:35:02;16.00;;;7.55;;
66052;SDS011;52833;45.112;39.556;2022-11-13T12:40:50;11.43;;;7.03;;
66052;SDS011;52833;45.112;39.556;2022-11-13T12:47:06;13.40;;;7.68;;
66052;SDS011;52833;45.112;39.556;2022-11-13T12:50:19;12.65;;;7.43;;
66052;SDS011;52833;45.112;39.556;2022-11-13T12:53:10;17.05;;;7.68;;
66052;SDS011;52833;45.112;39.556;2022-11-13T12:55:59;13.75;;;6.28;;
66052;SDS011;52833;45.112;39.556;2022-11-13T12:58:53;13.18;;;6.97;;
66052;SDS011;52833;45.112;39.556;2022-11-13T13:01:54;11.90;;;6.65;;
66052;SDS011;52833;45.112;39.556;2022-11-13T13:10:56;10.32;;;6.28;;
66052;SDS011;52833;45.112;39.556;2022-11-13T13:14:04;10.75;;;5.57;;
66052;SDS011;52833;45.112;39.556;2022-11-13T13:23:11;8.35;;;5.50;;
66052;SDS011;52833;45.112;39.556;2022-11-13T13:29:10;5.03;;;3.80;;
66052;SDS011;52833;45.112;39.556;2022-11-13T13:32:37;14.40;;;5.13;;
66052;SDS011;52833;45.112;39.556;2022-11-13T13:35:20;12.65;;;6.05;;
66052;SDS011;52833;45.112;39.556;2022-11-13T13:38:34;11.43;;;5.72;;
66052;SDS011;52833;45.112;39.556;2022-11-13T13:44:23;19.92;;;5.78;;
66052;SDS011;52833;45.112;39.556;2022-11-13T13:48:10;11.63;;;6.30;;
66052;SDS011;52833;45.112;39.556;2022-11-13T13:50:28;12.43;;;7.22;;
66052;SDS011;52833;45.112;39.556;2022-11-13T13:53:21;9.95;;;6.45;;
66052;SDS011;52833;45.112;39.556;2022-11-13T13:56:16;13.05;;;6.10;;
66052;SDS011;52833;45.112;39.556;2022-11-13T13:59:04;13.18;;;7.15;;
66052;SDS011;52833;45.112;39.556;2022-11-13T14:01:54;11.23;;;6.63;;
66052;SDS011;52833;45.112;39.556;2022-11-13T14:04:46;16.25;;;7.80;;
66052;SDS011;52833;45.112;39.556;2022-11-13T14:07:33;10.65;;;6.72;;
66052;SDS011;52833;45.112;39.556;2022-11-13T14:10:20;12.20;;;6.55;;
66052;SDS011;52833;45.112;39.556;2022-11-13T14:13:10;11.73;;;6.78;;
66052;SDS011;52833;45.112;39.556;2022-11-13T14:16:00;16.83;;;8.32;;
66052;SDS011;52833;45.112;39.556;2022-11-13T14:18:48;13.95;;;8.05;;
66052;SDS011;52833;45.112;39.556;2022-11-13T14:21:33;14.00;;;7.68;;
66052;SDS011;52833;45.112;39.556;2022-11-13T14:27:13;12.18;;;6.97;;
66052;SDS011;52833;45.112;39.556;2022-11-13T14:30:02;16.75;;;9.15;;
66052;SDS011;52833;45.112;39.556;2022-11-13T14:32:53;14.15;;;6.22;;
66052;SDS011;52833;45.112;39.556;2022-11-13T14:35:38;14.02;;;7.72;;
66052;SDS011;52833;45.112;39.556;2022-11-13T14:38:25;23.00;;;11.82;;
66052;SDS011;52833;45.112;39.556;2022-11-13T14:41:20;29.00;;;14.90;;
66052;SDS011;52833;45.112;39.556;2022-11-13T14:46:58;23.77;;;13.07;;
66052;SDS011;52833;45.112;39.556;2022-11-13T14:49:45;29.50;;;17.85;;
66052;SDS011;52833;45.112;39.556;2022-11-13T14:52:30;22.95;;;13.27;;
66052;SDS011;52833;45.112;39.556;2022-11-13T14:55:22;23.25;;;10.68;;
66052;SDS011;52833;45.112;39.556;2022-11-13T14:58:10;22.92;;;13.70;;
66052;SDS011;52833;45.112;39.556;2022-11-13T15:00:58;30.63;;;14.75;;
66052;SDS011;52833;45.112;39.556;2022-11-13T15:03:56;18.83;;;10.73;;
66052;SDS011;52833;45.112;39.556;2022-11-13T15:06:41;17.17;;;10.80;;
66052;SDS011;52833;45.112;39.556;2022-11-13T15:09:26;19.92;;;11.18;;
66052;SDS011;52833;45.112;39.556;2022-11-13T15:12:13;19.67;;;11.63;;
66052;SDS011;52833;45.112;39.556;2022-11-13T15:14:59;15.45;;;9.48;;
66052;SDS011;52833;45.112;39.556;2022-11-13T15:17:45;19.10;;;8.05;;
66052;SDS011;52833;45.112;39.556;2022-11-13T15:20:33;18.45;;;9.88;;
66052;SDS011;52833;45.112;39.556;2022-11-13T15:23:18;16.08;;;8.13;;
66052;SDS011;52833;45.112;39.556;2022-11-13T15:26:08;16.67;;;9.45;;
66052;SDS011;52833;45.112;39.556;2022-11-13T15:28:54;17.15;;;9.10;;
66052;SDS011;52833;45.112;39.556;2022-11-13T15:31:41;20.20;;;10.43;;
66052;SDS011;52833;45.112;39.556;2022-11-13T15:34:28;12.57;;;7.35;;
66052;SDS011;52833;45.112;39.556;2022-11-13T15:37:15;11.63;;;6.22;;
66052;SDS011;52833;45.112;39.556;2022-11-13T15:40:01;12.02;;;8.30;;
66052;SDS011;52833;45.112;39.556;2022-11-13T15:42:49;25.60;;;15.32;;
66052;SDS011;52833;45.112;39.556;2022-11-13T15:45:35;32.20;;;13.88;;
66052;SDS011;52833;45.112;39.556;2022-11-13T15:48:20;28.23;;;14.68;;
66052;SDS011;52833;45.112;39.556;2022-11-13T15:51:10;20.40;;;10.43;;
66052;SDS011;52833;45.112;39.556;2022-11-13T15:57:24;17.37;;;10.07;;
66052;SDS011;52833;45.112;39.556;2022-11-13T16:00:13;19.75;;;10.65;;
66052;SDS011;52833;45.112;39.556;2022-11-13T16:02:59;18.25;;;10.48;;
66052;SDS011;52833;45.112;39.556;2022-11-13T16:05:48;15.48;;;9.10;;
66052;SDS011;52833;45.112;39.556;2022-11-13T16:08:34;16.63;;;9.63;;
66052;SDS011;52833;45.112;39.556;2022-11-13T16:11:22;20.98;;;12.60;;
66052;SDS011;52833;45.112;39.556;2022-11-13T16:14:09;19.63;;;10.73;;
66052;SDS011;52833;45.112;39.556;2022-11-13T16:16:57;17.20;;;9.18;;
66052;SDS011;52833;45.112;39.556;2022-11-13T16:19:45;19.05;;;11.18;;
66052;SDS011;52833;45.112;39.556;2022-11-13T16:22:35;16.90;;;10.55;;
66052;SDS011;52833;45.112;39.556;2022-11-13T16:25:20;21.90;;;12.40;;
66052;SDS011;52833;45.112;39.556;2022-11-13T16:28:13;22.38;;;11.32;;
66052;SDS011;52833;45.112;39.556;2022-11-13T16:31:05;21.80;;;10.88;;
66052;SDS011;52833;45.112;39.556;2022-11-13T16:33:50;21.80;;;12.80;;
66052;SDS011;52833;45.112;39.556;2022-11-13T16:36:37;28.73;;;14.23;;
66052;SDS011;52833;45.112;39.556;2022-11-13T16:39:22;27.52;;;13.77;;
66052;SDS011;52833;45.112;39.556;2022-11-13T16:42:07;26.40;;;15.25;;
66052;SDS011;52833;45.112;39.556;2022-11-13T16:44:52;41.33;;;15.43;;
66052;SDS011;52833;45.112;39.556;2022-11-13T16:47:37;26.30;;;15.30;;
66052;SDS011;52833;45.112;39.556;2022-11-13T16:50:23;27.70;;;15.95;;
66052;SDS011;52833;45.112;39.556;2022-11-13T16:53:13;30.40;;;15.57;;
66052;SDS011;52833;45.112;39.556;2022-11-13T16:56:13;34.10;;;17.50;;
66052;SDS011;52833;45.112;39.556;2022-11-13T16:59:05;32.50;;;18.30;;
66052;SDS011;52833;45.112;39.556;2022-11-13T17:01:53;34.03;;;18.65;;
66052;SDS011;52833;45.112;39.556;2022-11-13T17:04:39;30.50;;;17.73;;
66052;SDS011;52833;45.112;39.556;2022-11-13T17:07:28;27.38;;;14.88;;
66052;SDS011;52833;45.112;39.556;2022-11-13T17:10:14;23.70;;;12.38;;
66052;SDS011;52833;45.112;39.556;2022-11-13T17:13:03;27.70;;;15.15;;
66052;SDS011;52833;45.112;39.556;2022-11-13T17:15:48;35.72;;;15.90;;
66052;SDS011;52833;45.112;39.556;2022-11-13T17:18:33;24.38;;;13.07;;
66052;SDS011;52833;45.112;39.556;2022-11-13T17:21:19;24.70;;;13.73;;
66052;SDS011;52833;45.112;39.556;2022-11-13T17:24:06;28.80;;;12.70;;
66052;SDS011;52833;45.112;39.556;2022-11-13T17:26:52;17.20;;;10.68;;
66052;SDS011;52833;45.112;39.556;2022-11-13T17:29:37;25.52;;;12.02;;
66052;SDS011;52833;45.112;39.556;2022-11-13T17:32:23;33.65;;;11.60;;
66052;SDS011;52833;45.112;39.556;2022-11-13T17:35:10;19.08;;;9.90;;
66052;SDS011;52833;45.112;39.556;2022-11-13T17:37:56;22.08;;;12.02;;
66052;SDS011;52833;45.112;39.556;2022-11-13T17:40:41;16.80;;;10.45;;
66052;SDS011;52833;45.112;39.556;2022-11-13T17:43:26;22.98;;;11.85;;
66052;SDS011;52833;45.112;39.556;2022-11-13T17:46:13;19.10;;;10.18;;
66052;SDS011;52833;45.112;39.556;2022-11-13T17:48:59;21.23;;;11.55;;
66052;SDS011;52833;45.112;39.556;2022-11-13T17:51:44;18.23;;;10.88;;